Ce_breeze — ELSQ7 — position and weather

sailwx.info

Track history (hours):
 
Tides and Currents Weather Stations Pressure Air Temp Water Temp Dewpoint Dewpoint Depression Visibility Wind Speed Wind Dir Waves Ship Positions

Ce_breeze

Last reported at 2017-Jul-21 03:03 UTC. Time now 2017-Aug-16 19:45 UTC.
Position N 39°40' E 019°13'.
Warning: this ship's position is 26 days out of date.

Length 240 m; draft 8 m.

Type: Tanker. MMSI: 636010400.

Date/timePositionNaut miles runAvg speedWind from/ knotsBaromVisibWave heightAir tempDewpointWater temp
2017-Jul-21 03:03N 39°40' E 019°13'4910.8
2017-Jul-20 22:32N 40°25' E 018°50'710.4
2017-Jul-20 21:52N 40°32' E 018°46'410.5
2017-Jul-20 21:30N 40°35' E 018°44'510.5
2017-Jul-20 21:00N 40°40' E 018°40'710.8
2017-Jul-20 20:23N 40°45' E 018°35'510.9
2017-Jul-20 19:55N 40°50' E 018°32'1910.5
2017-Jul-20 18:06N 41°03' E 018°14'110.9
2017-Jul-20 18:00N 41°04' E 018°13'510.8
2017-Jul-20 17:30N 41°07' E 018°07'18711.3
2017-Jul-20 00:51N 43°09' E 014°55'412.9
2017-Jul-20 00:30N 43°11' E 014°50'1112.9
2017-Jul-19 23:40N 43°18' E 014°39'213.0
2017-Jul-19 23:30N 43°20' E 014°37'712.8
2017-Jul-19 22:59N 43°23' E 014°29'612.7
2017-Jul-19 22:30N 43°27' E 014°22'712.9
2017-Jul-19 21:58N 43°31' E 014°14'1012.9
2017-Jul-19 21:13N 43°36' E 014°03'313.1
2017-Jul-19 21:00N 43°37' E 013°60'812.9
2017-Jul-19 20:24N 43°42' E 013°51'512.7
2017-Jul-19 19:59N 43°45' E 013°45'611.3
2017-Jul-19 19:30N 43°46' E 013°37'4 7.2
2017-Jul-19 18:57N 43°45' E 013°32'0 0.4
2017-Jul-19 18:25N 43°45' E 013°32'0 1.0
2017-Jul-19 17:58N 43°45' E 013°31'0 0.0
2017-Jul-19 17:22N 43°45' E 013°31'0 0.0
2017-Jul-19 16:52N 43°45' E 013°31'0 0.0
2017-Jul-19 16:25N 43°45' E 013°31'0 0.0
2017-Jul-19 15:43N 43°45' E 013°31'0 0.0
2017-Jul-19 15:28N 43°45' E 013°31'0 0.0
2017-Jul-19 14:46N 43°45' E 013°31'0 0.0
2017-Jul-19 14:28N 43°45' E 013°31'0 0.1
2017-Jul-19 13:52N 43°45' E 013°31'0 0.1
2017-Jul-19 13:28N 43°45' E 013°31'0 0.3
2017-Jul-19 12:37N 43°45' E 013°31'0 0.3
2017-Jul-19 12:28N 43°45' E 013°31'0 0.2
2017-Jul-19 11:56N 43°45' E 013°31'0 0.1
2017-Jul-19 11:19N 43°45' E 013°31'0 0.0
2017-Jul-19 10:58N 43°45' E 013°31'0 0.0
2017-Jul-19 10:25N 43°45' E 013°31'0 0.0
2017-Jul-19 09:46N 43°45' E 013°31'0 0.0
2017-Jul-19 09:25N 43°45' E 013°31'0 0.0
2017-Jul-19 08:58N 43°45' E 013°31'0 0.0
2017-Jul-19 08:13N 43°45' E 013°31'0 0.0
2017-Jul-19 07:58N 43°45' E 013°31'0 0.1
2017-Jul-19 07:10N 43°45' E 013°31'0 0.1
2017-Jul-19 06:55N 43°45' E 013°31'0 0.0
2017-Jul-19 05:28N 43°45' E 013°31'0 0.2
2017-Jul-19 04:58N 43°45' E 013°31'0 0.2
2017-Jul-19 04:04N 43°45' E 013°31'0 0.0
2017-Jul-18 23:04N 43°45' E 013°31'0 0.0
2017-Jul-18 21:43N 43°45' E 013°31'0 0.0
2017-Jul-18 21:28N 43°45' E 013°31'0 0.0
2017-Jul-18 20:58N 43°45' E 013°31'0 0.0
2017-Jul-18 18:55N 43°45' E 013°31'2 0.1
2017-Jul-17 19:56N 43°43' E 013°33'25 8.0
2017-Jul-17 16:45N 43°34' E 014°06'412.0
2017-Jul-17 16:26N 43°32' E 014°11'512.2
2017-Jul-17 16:00N 43°30' E 014°17'447 8.7
2017-Jul-15 12:40N 36°04' E 014°54'1 5.5
2017-Jul-15 12:27N 36°03' E 014°52'2 5.1
2017-Jul-15 12:00N 36°02' E 014°50'0 0.4
2017-Jul-15 11:30N 36°01' E 014°50'0 0.8
2017-Jul-15 11:00N 36°02' E 014°50'1 1.0
2017-Jul-15 10:30N 36°02' E 014°51'0 0.1
2017-Jul-15 10:00N 36°02' E 014°51'1 0.4
2017-Jul-15 08:05N 36°02' E 014°50'0 0.6
2017-Jul-15 07:51N 36°02' E 014°50'0 0.6
2017-Jul-15 07:29N 36°02' E 014°50'1 0.5
2017-Jul-15 06:31N 36°02' E 014°49'0 0.9
2017-Jul-15 06:30N 36°02' E 014°49'0 0.5
2017-Jul-15 06:00N 36°02' E 014°49'0 0.5
2017-Jul-15 05:30N 36°02' E 014°48'0 0.4
2017-Jul-15 05:00N 36°02' E 014°48'0 0.4
2017-Jul-15 04:29N 36°03' E 014°48'0 0.4
2017-Jul-15 04:00N 36°03' E 014°48'0 0.4
2017-Jul-15 03:30N 36°03' E 014°48'0 0.4
2017-Jul-15 03:00N 36°03' E 014°48'0 0.4
2017-Jul-15 02:30N 36°03' E 014°48'0 0.4
2017-Jul-15 02:00N 36°04' E 014°48'0 0.5
2017-Jul-15 01:26N 36°04' E 014°48'0 0.5
2017-Jul-15 01:00N 36°04' E 014°48'1 0.8
2017-Jul-14 23:25N 36°03' E 014°46'1 1.7
2017-Jul-14 23:00N 36°02' E 014°46'0 0.8
2017-Jul-14 22:30N 36°02' E 014°46'0 0.7
2017-Jul-14 22:00N 36°03' E 014°46'0 0.8
2017-Jul-14 21:30N 36°03' E 014°45'1 0.8
2017-Jul-14 20:50N 36°04' E 014°45'0 0.8
2017-Jul-14 20:21N 36°04' E 014°45'0 0.9
2017-Jul-14 20:00N 36°04' E 014°45'1 0.9
2017-Jul-14 19:02N 36°05' E 014°44'0 1.1
2017-Jul-14 18:59N 36°05' E 014°44'0 0.8
2017-Jul-14 18:30N 36°05' E 014°44'0 0.9
2017-Jul-14 18:00N 36°05' E 014°43'0 0.8
2017-Jul-14 17:30N 36°06' E 014°43'0 0.8
2017-Jul-14 17:00N 36°06' E 014°43'0 0.8
2017-Jul-14 16:30N 36°06' E 014°42'0 0.7
2017-Jul-14 16:00N 36°06' E 014°42'0 0.7
2017-Jul-14 15:30N 36°07' E 014°42'0 0.7
2017-Jul-14 15:00N 36°07' E 014°41'0 0.6
2017-Jul-14 14:30N 36°07' E 014°41'0 0.7
2017-Jul-14 14:00N 36°07' E 014°41'0 0.6
2017-Jul-14 13:30N 36°07' E 014°40'0 0.6
2017-Jul-14 13:00N 36°08' E 014°40'0 0.6
2017-Jul-14 12:30N 36°08' E 014°40'0 0.6
2017-Jul-14 12:00N 36°08' E 014°39'0 0.6
2017-Jul-14 11:30N 36°08' E 014°39'0 0.6
2017-Jul-14 11:00N 36°08' E 014°39'0 0.6
2017-Jul-14 10:30N 36°09' E 014°39'0 0.5
2017-Jul-14 10:00N 36°09' E 014°38'0 0.5
2017-Jul-14 09:30N 36°09' E 014°38'0 0.4
2017-Jul-14 09:00N 36°09' E 014°38'0 0.4
2017-Jul-14 08:30N 36°09' E 014°38'0 0.4
2017-Jul-14 08:00N 36°09' E 014°38'0 0.2
2017-Jul-14 07:30N 36°09' E 014°38'0 0.6
2017-Jul-14 07:00N 36°09' E 014°38'0 0.9
2017-Jul-14 06:30N 36°09' E 014°38'1 2.0
2017-Jul-14 06:00N 36°08' E 014°39'2 4.0
2017-Jul-14 05:30N 36°07' E 014°41'2 4.0
2017-Jul-14 05:00N 36°06' E 014°43'2 4.0
2017-Jul-14 04:30N 36°05' E 014°45'2 3.7
2017-Jul-14 04:00N 36°05' E 014°47'1 2.7
2017-Jul-14 03:30N 36°04' E 014°49'1 1.5
2017-Jul-14 03:00N 36°04' E 014°48'1 1.7
2017-Jul-14 02:30N 36°04' E 014°47'1 1.4
2017-Jul-14 02:00N 36°04' E 014°46'1 1.1
2017-Jul-14 01:30N 36°05' E 014°45'1 1.3
2017-Jul-14 01:00N 36°05' E 014°45'1 1.1
2017-Jul-14 00:30N 36°05' E 014°44'1 1.0
2017-Jul-14 00:00N 36°06' E 014°44'1 1.1
2017-Jul-13 23:30N 36°06' E 014°43'1 1.1
2017-Jul-13 23:00N 36°06' E 014°43'1 1.1
2017-Jul-13 22:30N 36°07' E 014°42'0 1.0
2017-Jul-13 22:00N 36°07' E 014°42'1 1.4
2017-Jul-13 21:30N 36°07' E 014°41'1 1.6
2017-Jul-13 21:00N 36°07' E 014°40'1 1.7
2017-Jul-13 20:30N 36°07' E 014°39'2 4.5
2017-Jul-13 20:00N 36°05' E 014°39'3 5.2
2017-Jul-13 19:30N 36°02' E 014°39'3 5.5
2017-Jul-13 19:00N 35°59' E 014°38'1 2.2
2017-Jul-13 18:30N 35°58' E 014°38'0 0.4
2017-Jul-13 18:00N 35°58' E 014°38'0 0.4
2017-Jul-13 17:30N 35°58' E 014°37'0 0.3
2017-Jul-13 17:00N 35°58' E 014°37'0 0.4
2017-Jul-13 16:30N 35°58' E 014°37'0 0.4
2017-Jul-13 16:00N 35°59' E 014°37'1 2.5
2017-Jul-13 15:30N 35°59' E 014°39'3 6.5
2017-Jul-13 15:00N 35°59' E 014°43'4 8.9
2017-Jul-13 14:30N 36°00' E 014°48'4 8.9
2017-Jul-13 14:00N 36°01' E 014°53'0 0.6
2017-Jul-13 13:28N 36°01' E 014°54'0 0.0
2017-Jul-13 12:58N 36°01' E 014°54'0 0.0
2017-Jul-13 12:28N 36°01' E 014°54'0 0.1
2017-Jul-13 11:58N 36°01' E 014°54'0 0.1
2017-Jul-13 11:28N 36°01' E 014°54'0 0.0
2017-Jul-13 10:58N 36°01' E 014°54'0 0.0
2017-Jul-13 10:28N 36°01' E 014°54'0 0.0
2017-Jul-13 09:58N 36°01' E 014°54'0 0.0
2017-Jul-13 09:28N 36°01' E 014°54'0 0.0
2017-Jul-13 08:58N 36°01' E 014°54'0 0.0
2017-Jul-13 08:28N 36°01' E 014°54'0 0.1
2017-Jul-13 07:58N 36°01' E 014°54'0 0.0
2017-Jul-13 07:28N 36°01' E 014°54'0 0.0
2017-Jul-13 06:58N 36°01' E 014°54'0 0.0
2017-Jul-13 06:28N 36°01' E 014°54'0 0.0
2017-Jul-13 05:58N 36°01' E 014°54'0 0.0
2017-Jul-13 05:28N 36°01' E 014°54'0 0.0
2017-Jul-13 04:55N 36°01' E 014°54'0 0.1
2017-Jul-13 04:28N 36°01' E 014°54'0 0.0
2017-Jul-13 03:58N 36°01' E 014°54'0 0.0
2017-Jul-13 03:28N 36°01' E 014°54'0 0.0
2017-Jul-13 02:58N 36°01' E 014°54'0 0.0
2017-Jul-13 02:29N 36°01' E 014°54'0 0.0
2017-Jul-13 01:58N 36°01' E 014°54'0 0.0
2017-Jul-13 01:28N 36°01' E 014°54'0 0.0
2017-Jul-13 00:58N 36°01' E 014°54'0 0.0
2017-Jul-13 00:28N 36°01' E 014°54'0 0.0
2017-Jul-12 23:55N 36°01' E 014°54'0 0.0
2017-Jul-12 23:28N 36°01' E 014°54'0 0.0
2017-Jul-12 22:55N 36°01' E 014°54'0 0.0
2017-Jul-12 22:25N 36°01' E 014°54'0 0.0
2017-Jul-12 21:58N 36°01' E 014°54'0 0.0
2017-Jul-12 21:16N 36°01' E 014°54'0 0.2
2017-Jul-12 20:58N 36°01' E 014°54'0 0.2
2017-Jul-12 20:30N 36°01' E 014°54'2 4.1
2017-Jul-12 19:59N 35°59' E 014°54'4 7.4
2017-Jul-12 19:30N 35°55' E 014°53'4 8.1
2017-Jul-12 19:00N 35°53' E 014°49'1 1.5
2017-Jul-12 18:27N 35°52' E 014°48'0 0.0
2017-Jul-12 18:00N 35°52' E 014°48'0 0.0
2017-Jul-12 17:30N 35°52' E 014°48'0 0.0
2017-Jul-12 17:00N 35°52' E 014°48'0 0.0
2017-Jul-12 16:30N 35°52' E 014°48'0 0.0
2017-Jul-12 16:00N 35°52' E 014°48'0 0.2
2017-Jul-12 15:30N 35°52' E 014°48'0 0.2
2017-Jul-12 14:45N 35°52' E 014°48'0 0.1
2017-Jul-12 14:00N 35°52' E 014°48'0 0.1
2017-Jul-12 13:30N 35°52' E 014°48'0 0.0
2017-Jul-12 13:00N 35°52' E 014°48'0 0.0
2017-Jul-12 12:30N 35°52' E 014°48'0 0.0
2017-Jul-12 12:00N 35°52' E 014°48'0 0.1
2017-Jul-12 11:30N 35°52' E 014°48'0 0.0
2017-Jul-12 11:00N 35°52' E 014°48'0 0.0
2017-Jul-12 10:30N 35°52' E 014°48'0 0.1
2017-Jul-12 10:00N 35°52' E 014°48'1 1.2
2017-Jul-12 09:30N 35°53' E 014°49'2 4.9
2017-Jul-12 09:00N 35°54' E 014°51'4 8.4
2017-Jul-12 08:30N 35°58' E 014°53'3 5.2
2017-Jul-12 08:00N 36°01' E 014°54'0 0.1
2017-Jul-12 07:27N 36°01' E 014°54'0 0.0
2017-Jul-12 07:00N 36°01' E 014°54'0 0.1
2017-Jul-12 06:30N 36°01' E 014°54'0 0.0
2017-Jul-12 06:00N 36°01' E 014°54'0 0.0
2017-Jul-12 05:30N 36°01' E 014°54'0 0.0
2017-Jul-12 05:00N 36°01' E 014°54'0 0.1
2017-Jul-12 04:30N 36°01' E 014°54'0 0.0
2017-Jul-12 03:57N 36°01' E 014°54'0 0.1
2017-Jul-12 03:30N 36°01' E 014°54'0 0.0
2017-Jul-12 03:00N 36°01' E 014°54'0 0.0
2017-Jul-12 02:30N 36°01' E 014°54'0 0.0
2017-Jul-12 02:00N 36°01' E 014°54'0 0.1
2017-Jul-12 01:30N 36°01' E 014°54'0 0.0
2017-Jul-12 01:00N 36°01' E 014°54'0 0.0
2017-Jul-12 00:30N 36°01' E 014°54'0 0.1
2017-Jul-12 00:00N 36°01' E 014°54'0 0.0
2017-Jul-11 23:30N 36°01' E 014°54'0 0.2
2017-Jul-11 23:00N 36°01' E 014°54'0 0.2
2017-Jul-11 22:30N 36°01' E 014°54'0 0.2
2017-Jul-11 22:00N 36°01' E 014°54'0 0.1
2017-Jul-11 21:30N 36°01' E 014°53'0 0.0
2017-Jul-11 21:00N 36°01' E 014°53'0 0.0
2017-Jul-11 20:30N 36°01' E 014°53'0 0.0
2017-Jul-11 20:00N 36°01' E 014°54'0 0.0
2017-Jul-11 19:30N 36°01' E 014°54'0 0.0
2017-Jul-11 19:00N 36°01' E 014°54'0 0.0
2017-Jul-11 18:30N 36°01' E 014°54'0 0.0
2017-Jul-11 18:00N 36°01' E 014°54'0 0.0
2017-Jul-11 17:30N 36°01' E 014°54'0 0.0
2017-Jul-11 17:00N 36°01' E 014°54'0 0.0
2017-Jul-11 16:30N 36°01' E 014°54'0 0.0
2017-Jul-11 16:00N 36°01' E 014°54'0 0.1
2017-Jul-11 15:30N 36°01' E 014°54'0 0.0
2017-Jul-11 15:00N 36°01' E 014°54'0 0.0
2017-Jul-11 14:27N 36°01' E 014°54'0 0.0
2017-Jul-11 13:57N 36°01' E 014°54'0 0.0
2017-Jul-11 13:30N 36°01' E 014°54'0 0.1
2017-Jul-11 13:00N 36°01' E 014°54'0 0.0
2017-Jul-11 12:27N 36°01' E 014°54'0 0.0
2017-Jul-11 12:00N 36°01' E 014°54'0 0.0
2017-Jul-11 11:27N 36°01' E 014°54'0 0.1
2017-Jul-11 11:00N 36°01' E 014°54'0 0.1
2017-Jul-11 10:30N 36°01' E 014°54'1 2.2
2017-Jul-11 10:00N 36°01' E 014°55'2 5.0
2017-Jul-11 09:30N 36°03' E 014°58'4 7.9
2017-Jul-11 09:00N 36°05' E 015°02'4 8.5
2017-Jul-11 08:30N 36°07' E 015°06'4 8.5
2017-Jul-11 08:00N 36°09' E 015°11'4 8.5
2017-Jul-11 07:30N 36°11' E 015°15'15 8.4
2017-Jul-11 05:46N 36°19' E 015°31'2 8.5
2017-Jul-11 05:30N 36°20' E 015°33'4 8.5
2017-Jul-11 05:00N 36°22' E 015°37'4 8.6
2017-Jul-11 04:30N 36°25' E 015°42'4 8.8
2017-Jul-11 04:00N 36°27' E 015°47'5 9.0
2017-Jul-11 03:28N 36°29' E 015°52'  
Track history (hours):
 
Tides and Currents Weather Stations Pressure Air Temp Water Temp Dewpoint Dewpoint Depression Visibility Wind Speed Wind Dir Waves Ship Positions

Ce_breeze

Last reported at 2017-Jul-21 03:03 UTC. Time now 2017-Aug-16 19:45 UTC.
Position N 39°40' E 019°13'.
Warning: this ship's position is 26 days out of date.

Length 240 m; draft 8 m.

Type: Tanker. MMSI: 636010400.

Date/timePositionNaut miles runAvg speedWind from/ knotsBaromVisibWave heightAir tempDewpointWater temp
2017-Jul-21 03:03N 39°40' E 019°13'4910.8
2017-Jul-20 22:32N 40°25' E 018°50'710.4
2017-Jul-20 21:52N 40°32' E 018°46'410.5
2017-Jul-20 21:30N 40°35' E 018°44'510.5
2017-Jul-20 21:00N 40°40' E 018°40'710.8
2017-Jul-20 20:23N 40°45' E 018°35'510.9
2017-Jul-20 19:55N 40°50' E 018°32'1910.5
2017-Jul-20 18:06N 41°03' E 018°14'110.9
2017-Jul-20 18:00N 41°04' E 018°13'510.8
2017-Jul-20 17:30N 41°07' E 018°07'18711.3
2017-Jul-20 00:51N 43°09' E 014°55'412.9
2017-Jul-20 00:30N 43°11' E 014°50'1112.9
2017-Jul-19 23:40N 43°18' E 014°39'213.0
2017-Jul-19 23:30N 43°20' E 014°37'712.8
2017-Jul-19 22:59N 43°23' E 014°29'612.7
2017-Jul-19 22:30N 43°27' E 014°22'712.9
2017-Jul-19 21:58N 43°31' E 014°14'1012.9
2017-Jul-19 21:13N 43°36' E 014°03'313.1
2017-Jul-19 21:00N 43°37' E 013°60'812.9
2017-Jul-19 20:24N 43°42' E 013°51'512.7
2017-Jul-19 19:59N 43°45' E 013°45'611.3
2017-Jul-19 19:30N 43°46' E 013°37'4 7.2
2017-Jul-19 18:57N 43°45' E 013°32'0 0.4
2017-Jul-19 18:25N 43°45' E 013°32'0 1.0
2017-Jul-19 17:58N 43°45' E 013°31'0 0.0
2017-Jul-19 17:22N 43°45' E 013°31'0 0.0
2017-Jul-19 16:52N 43°45' E 013°31'0 0.0
2017-Jul-19 16:25N 43°45' E 013°31'0 0.0
2017-Jul-19 15:43N 43°45' E 013°31'0 0.0
2017-Jul-19 15:28N 43°45' E 013°31'0 0.0
2017-Jul-19 14:46N 43°45' E 013°31'0 0.0
2017-Jul-19 14:28N 43°45' E 013°31'0 0.1
2017-Jul-19 13:52N 43°45' E 013°31'0 0.1
2017-Jul-19 13:28N 43°45' E 013°31'0 0.3
2017-Jul-19 12:37N 43°45' E 013°31'0 0.3
2017-Jul-19 12:28N 43°45' E 013°31'0 0.2
2017-Jul-19 11:56N 43°45' E 013°31'0 0.1
2017-Jul-19 11:19N 43°45' E 013°31'0 0.0
2017-Jul-19 10:58N 43°45' E 013°31'0 0.0
2017-Jul-19 10:25N 43°45' E 013°31'0 0.0
2017-Jul-19 09:46N 43°45' E 013°31'0 0.0
2017-Jul-19 09:25N 43°45' E 013°31'0 0.0
2017-Jul-19 08:58N 43°45' E 013°31'0 0.0
2017-Jul-19 08:13N 43°45' E 013°31'0 0.0
2017-Jul-19 07:58N 43°45' E 013°31'0 0.1
2017-Jul-19 07:10N 43°45' E 013°31'0 0.1
2017-Jul-19 06:55N 43°45' E 013°31'0 0.0
2017-Jul-19 05:28N 43°45' E 013°31'0 0.2
2017-Jul-19 04:58N 43°45' E 013°31'0 0.2
2017-Jul-19 04:04N 43°45' E 013°31'0 0.0
2017-Jul-18 23:04N 43°45' E 013°31'0 0.0
2017-Jul-18 21:43N 43°45' E 013°31'0 0.0
2017-Jul-18 21:28N 43°45' E 013°31'0 0.0
2017-Jul-18 20:58N 43°45' E 013°31'0 0.0
2017-Jul-18 18:55N 43°45' E 013°31'2 0.1
2017-Jul-17 19:56N 43°43' E 013°33'25 8.0
2017-Jul-17 16:45N 43°34' E 014°06'412.0
2017-Jul-17 16:26N 43°32' E 014°11'512.2
2017-Jul-17 16:00N 43°30' E 014°17'447 8.7
2017-Jul-15 12:40N 36°04' E 014°54'1 5.5
2017-Jul-15 12:27N 36°03' E 014°52'2 5.1
2017-Jul-15 12:00N 36°02' E 014°50'0 0.4
2017-Jul-15 11:30N 36°01' E 014°50'0 0.8
2017-Jul-15 11:00N 36°02' E 014°50'1 1.0
2017-Jul-15 10:30N 36°02' E 014°51'0 0.1
2017-Jul-15 10:00N 36°02' E 014°51'1 0.4
2017-Jul-15 08:05N 36°02' E 014°50'0 0.6
2017-Jul-15 07:51N 36°02' E 014°50'0 0.6
2017-Jul-15 07:29N 36°02' E 014°50'1 0.5
2017-Jul-15 06:31N 36°02' E 014°49'0 0.9
2017-Jul-15 06:30N 36°02' E 014°49'0 0.5
2017-Jul-15 06:00N 36°02' E 014°49'0 0.5
2017-Jul-15 05:30N 36°02' E 014°48'0 0.4
2017-Jul-15 05:00N 36°02' E 014°48'0 0.4
2017-Jul-15 04:29N 36°03' E 014°48'0 0.4
2017-Jul-15 04:00N 36°03' E 014°48'0 0.4
2017-Jul-15 03:30N 36°03' E 014°48'0 0.4
2017-Jul-15 03:00N 36°03' E 014°48'0 0.4
2017-Jul-15 02:30N 36°03' E 014°48'0 0.4
2017-Jul-15 02:00N 36°04' E 014°48'0 0.5
2017-Jul-15 01:26N 36°04' E 014°48'0 0.5
2017-Jul-15 01:00N 36°04' E 014°48'1 0.8
2017-Jul-14 23:25N 36°03' E 014°46'1 1.7
2017-Jul-14 23:00N 36°02' E 014°46'0 0.8
2017-Jul-14 22:30N 36°02' E 014°46'0 0.7
2017-Jul-14 22:00N 36°03' E 014°46'0 0.8
2017-Jul-14 21:30N 36°03' E 014°45'1 0.8
2017-Jul-14 20:50N 36°04' E 014°45'0 0.8
2017-Jul-14 20:21N 36°04' E 014°45'0 0.9
2017-Jul-14 20:00N 36°04' E 014°45'1 0.9
2017-Jul-14 19:02N 36°05' E 014°44'0 1.1
2017-Jul-14 18:59N 36°05' E 014°44'0 0.8
2017-Jul-14 18:30N 36°05' E 014°44'0 0.9
2017-Jul-14 18:00N 36°05' E 014°43'0 0.8
2017-Jul-14 17:30N 36°06' E 014°43'0 0.8
2017-Jul-14 17:00N 36°06' E 014°43'0 0.8
2017-Jul-14 16:30N 36°06' E 014°42'0 0.7
2017-Jul-14 16:00N 36°06' E 014°42'0 0.7
2017-Jul-14 15:30N 36°07' E 014°42'0 0.7
2017-Jul-14 15:00N 36°07' E 014°41'0 0.6
2017-Jul-14 14:30N 36°07' E 014°41'0 0.7
2017-Jul-14 14:00N 36°07' E 014°41'0 0.6
2017-Jul-14 13:30N 36°07' E 014°40'0 0.6
2017-Jul-14 13:00N 36°08' E 014°40'0 0.6
2017-Jul-14 12:30N 36°08' E 014°40'0 0.6
2017-Jul-14 12:00N 36°08' E 014°39'0 0.6
2017-Jul-14 11:30N 36°08' E 014°39'0 0.6
2017-Jul-14 11:00N 36°08' E 014°39'0 0.6
2017-Jul-14 10:30N 36°09' E 014°39'0 0.5
2017-Jul-14 10:00N 36°09' E 014°38'0 0.5
2017-Jul-14 09:30N 36°09' E 014°38'0 0.4
2017-Jul-14 09:00N 36°09' E 014°38'0 0.4
2017-Jul-14 08:30N 36°09' E 014°38'0 0.4
2017-Jul-14 08:00N 36°09' E 014°38'0 0.2
2017-Jul-14 07:30N 36°09' E 014°38'0 0.6
2017-Jul-14 07:00N 36°09' E 014°38'0 0.9
2017-Jul-14 06:30N 36°09' E 014°38'1 2.0
2017-Jul-14 06:00N 36°08' E 014°39'2 4.0
2017-Jul-14 05:30N 36°07' E 014°41'2 4.0
2017-Jul-14 05:00N 36°06' E 014°43'2 4.0
2017-Jul-14 04:30N 36°05' E 014°45'2 3.7
2017-Jul-14 04:00N 36°05' E 014°47'1 2.7
2017-Jul-14 03:30N 36°04' E 014°49'1 1.5
2017-Jul-14 03:00N 36°04' E 014°48'1 1.7
2017-Jul-14 02:30N 36°04' E 014°47'1 1.4
2017-Jul-14 02:00N 36°04' E 014°46'1 1.1
2017-Jul-14 01:30N 36°05' E 014°45'1 1.3
2017-Jul-14 01:00N 36°05' E 014°45'1 1.1
2017-Jul-14 00:30N 36°05' E 014°44'1 1.0
2017-Jul-14 00:00N 36°06' E 014°44'1 1.1
2017-Jul-13 23:30N 36°06' E 014°43'1 1.1
2017-Jul-13 23:00N 36°06' E 014°43'1 1.1
2017-Jul-13 22:30N 36°07' E 014°42'0 1.0
2017-Jul-13 22:00N 36°07' E 014°42'1 1.4
2017-Jul-13 21:30N 36°07' E 014°41'1 1.6
2017-Jul-13 21:00N 36°07' E 014°40'1 1.7
2017-Jul-13 20:30N 36°07' E 014°39'2 4.5
2017-Jul-13 20:00N 36°05' E 014°39'3 5.2
2017-Jul-13 19:30N 36°02' E 014°39'3 5.5
2017-Jul-13 19:00N 35°59' E 014°38'1 2.2
2017-Jul-13 18:30N 35°58' E 014°38'0 0.4
2017-Jul-13 18:00N 35°58' E 014°38'0 0.4
2017-Jul-13 17:30N 35°58' E 014°37'0 0.3
2017-Jul-13 17:00N 35°58' E 014°37'0 0.4
2017-Jul-13 16:30N 35°58' E 014°37'0 0.4
2017-Jul-13 16:00N 35°59' E 014°37'1 2.5
2017-Jul-13 15:30N 35°59' E 014°39'3 6.5
2017-Jul-13 15:00N 35°59' E 014°43'4 8.9
2017-Jul-13 14:30N 36°00' E 014°48'4 8.9
2017-Jul-13 14:00N 36°01' E 014°53'0 0.6
2017-Jul-13 13:28N 36°01' E 014°54'0 0.0
2017-Jul-13 12:58N 36°01' E 014°54'0 0.0
2017-Jul-13 12:28N 36°01' E 014°54'0 0.1
2017-Jul-13 11:58N 36°01' E 014°54'0 0.1
2017-Jul-13 11:28N 36°01' E 014°54'0 0.0
2017-Jul-13 10:58N 36°01' E 014°54'0 0.0
2017-Jul-13 10:28N 36°01' E 014°54'0 0.0
2017-Jul-13 09:58N 36°01' E 014°54'0 0.0
2017-Jul-13 09:28N 36°01' E 014°54'0 0.0
2017-Jul-13 08:58N 36°01' E 014°54'0 0.0
2017-Jul-13 08:28N 36°01' E 014°54'0 0.1
2017-Jul-13 07:58N 36°01' E 014°54'0 0.0
2017-Jul-13 07:28N 36°01' E 014°54'0 0.0
2017-Jul-13 06:58N 36°01' E 014°54'0 0.0
2017-Jul-13 06:28N 36°01' E 014°54'0 0.0
2017-Jul-13 05:58N 36°01' E 014°54'0 0.0
2017-Jul-13 05:28N 36°01' E 014°54'0 0.0
2017-Jul-13 04:55N 36°01' E 014°54'0 0.1
2017-Jul-13 04:28N 36°01' E 014°54'0 0.0
2017-Jul-13 03:58N 36°01' E 014°54'0 0.0
2017-Jul-13 03:28N 36°01' E 014°54'0 0.0
2017-Jul-13 02:58N 36°01' E 014°54'0 0.0
2017-Jul-13 02:29N 36°01' E 014°54'0 0.0
2017-Jul-13 01:58N 36°01' E 014°54'0 0.0
2017-Jul-13 01:28N 36°01' E 014°54'0 0.0
2017-Jul-13 00:58N 36°01' E 014°54'0 0.0
2017-Jul-13 00:28N 36°01' E 014°54'0 0.0
2017-Jul-12 23:55N 36°01' E 014°54'0 0.0
2017-Jul-12 23:28N 36°01' E 014°54'0 0.0
2017-Jul-12 22:55N 36°01' E 014°54'0 0.0
2017-Jul-12 22:25N 36°01' E 014°54'0 0.0
2017-Jul-12 21:58N 36°01' E 014°54'0 0.0
2017-Jul-12 21:16N 36°01' E 014°54'0 0.2
2017-Jul-12 20:58N 36°01' E 014°54'0 0.2
2017-Jul-12 20:30N 36°01' E 014°54'2 4.1
2017-Jul-12 19:59N 35°59' E 014°54'4 7.4
2017-Jul-12 19:30N 35°55' E 014°53'4 8.1
2017-Jul-12 19:00N 35°53' E 014°49'1 1.5
2017-Jul-12 18:27N 35°52' E 014°48'0 0.0
2017-Jul-12 18:00N 35°52' E 014°48'0 0.0
2017-Jul-12 17:30N 35°52' E 014°48'0 0.0
2017-Jul-12 17:00N 35°52' E 014°48'0 0.0
2017-Jul-12 16:30N 35°52' E 014°48'0 0.0
2017-Jul-12 16:00N 35°52' E 014°48'0 0.2
2017-Jul-12 15:30N 35°52' E 014°48'0 0.2
2017-Jul-12 14:45N 35°52' E 014°48'0 0.1
2017-Jul-12 14:00N 35°52' E 014°48'0 0.1
2017-Jul-12 13:30N 35°52' E 014°48'0 0.0
2017-Jul-12 13:00N 35°52' E 014°48'0 0.0
2017-Jul-12 12:30N 35°52' E 014°48'0 0.0
2017-Jul-12 12:00N 35°52' E 014°48'0 0.1
2017-Jul-12 11:30N 35°52' E 014°48'0 0.0
2017-Jul-12 11:00N 35°52' E 014°48'0 0.0
2017-Jul-12 10:30N 35°52' E 014°48'0 0.1
2017-Jul-12 10:00N 35°52' E 014°48'1 1.2
2017-Jul-12 09:30N 35°53' E 014°49'2 4.9
2017-Jul-12 09:00N 35°54' E 014°51'4 8.4
2017-Jul-12 08:30N 35°58' E 014°53'3 5.2
2017-Jul-12 08:00N 36°01' E 014°54'0 0.1
2017-Jul-12 07:27N 36°01' E 014°54'0 0.0
2017-Jul-12 07:00N 36°01' E 014°54'0 0.1
2017-Jul-12 06:30N 36°01' E 014°54'0 0.0
2017-Jul-12 06:00N 36°01' E 014°54'0 0.0
2017-Jul-12 05:30N 36°01' E 014°54'0 0.0
2017-Jul-12 05:00N 36°01' E 014°54'0 0.1
2017-Jul-12 04:30N 36°01' E 014°54'0 0.0
2017-Jul-12 03:57N 36°01' E 014°54'0 0.1
2017-Jul-12 03:30N 36°01' E 014°54'0 0.0
2017-Jul-12 03:00N 36°01' E 014°54'0 0.0
2017-Jul-12 02:30N 36°01' E 014°54'0 0.0
2017-Jul-12 02:00N 36°01' E 014°54'0 0.1
2017-Jul-12 01:30N 36°01' E 014°54'0 0.0
2017-Jul-12 01:00N 36°01' E 014°54'0 0.0
2017-Jul-12 00:30N 36°01' E 014°54'0 0.1
2017-Jul-12 00:00N 36°01' E 014°54'0 0.0
2017-Jul-11 23:30N 36°01' E 014°54'0 0.2
2017-Jul-11 23:00N 36°01' E 014°54'0 0.2
2017-Jul-11 22:30N 36°01' E 014°54'0 0.2
2017-Jul-11 22:00N 36°01' E 014°54'0 0.1
2017-Jul-11 21:30N 36°01' E 014°53'0 0.0
2017-Jul-11 21:00N 36°01' E 014°53'0 0.0
2017-Jul-11 20:30N 36°01' E 014°53'0 0.0
2017-Jul-11 20:00N 36°01' E 014°54'0 0.0
2017-Jul-11 19:30N 36°01' E 014°54'0 0.0
2017-Jul-11 19:00N 36°01' E 014°54'0 0.0
2017-Jul-11 18:30N 36°01' E 014°54'0 0.0
2017-Jul-11 18:00N 36°01' E 014°54'0 0.0
2017-Jul-11 17:30N 36°01' E 014°54'0 0.0
2017-Jul-11 17:00N 36°01' E 014°54'0 0.0
2017-Jul-11 16:30N 36°01' E 014°54'0 0.0
2017-Jul-11 16:00N 36°01' E 014°54'0 0.1
2017-Jul-11 15:30N 36°01' E 014°54'0 0.0
2017-Jul-11 15:00N 36°01' E 014°54'0 0.0
2017-Jul-11 14:27N 36°01' E 014°54'0 0.0
2017-Jul-11 13:57N 36°01' E 014°54'0 0.0
2017-Jul-11 13:30N 36°01' E 014°54'0 0.1
2017-Jul-11 13:00N 36°01' E 014°54'0 0.0
2017-Jul-11 12:27N 36°01' E 014°54'0 0.0
2017-Jul-11 12:00N 36°01' E 014°54'0 0.0
2017-Jul-11 11:27N 36°01' E 014°54'0 0.1
2017-Jul-11 11:00N 36°01' E 014°54'0 0.1
2017-Jul-11 10:30N 36°01' E 014°54'1 2.2
2017-Jul-11 10:00N 36°01' E 014°55'2 5.0
2017-Jul-11 09:30N 36°03' E 014°58'4 7.9
2017-Jul-11 09:00N 36°05' E 015°02'4 8.5
2017-Jul-11 08:30N 36°07' E 015°06'4 8.5
2017-Jul-11 08:00N 36°09' E 015°11'4 8.5
2017-Jul-11 07:30N 36°11' E 015°15'15 8.4
2017-Jul-11 05:46N 36°19' E 015°31'2 8.5
2017-Jul-11 05:30N 36°20' E 015°33'4 8.5
2017-Jul-11 05:00N 36°22' E 015°37'4 8.6
2017-Jul-11 04:30N 36°25' E 015°42'4 8.8
2017-Jul-11 04:00N 36°27' E 015°47'5 9.0
2017-Jul-11 03:28N 36°29' E 015°52'  

Dump ship's entire track history